sensor_id;sensor_type;location;lat;lon;timestamp;P1;durP1;ratioP1;P2;durP2;ratioP2
8564;SDS011;4320;51.498;6.556;2023-06-14T00:00:13;7.30;;;4.40;;
8564;SDS011;4320;51.498;6.556;2023-06-14T00:02:39;6.55;;;4.65;;
8564;SDS011;4320;51.498;6.556;2023-06-14T00:05:06;5.10;;;4.47;;
8564;SDS011;4320;51.498;6.556;2023-06-14T00:07:33;7.43;;;4.57;;
8564;SDS011;4320;51.498;6.556;2023-06-14T00:10:07;5.35;;;4.35;;
8564;SDS011;4320;51.498;6.556;2023-06-14T00:12:34;10.52;;;4.70;;
8564;SDS011;4320;51.498;6.556;2023-06-14T00:15:00;6.93;;;4.32;;
8564;SDS011;4320;51.498;6.556;2023-06-14T00:17:28;5.05;;;4.10;;
8564;SDS011;4320;51.498;6.556;2023-06-14T00:20:00;5.93;;;4.57;;
8564;SDS011;4320;51.498;6.556;2023-06-14T00:22:30;5.22;;;4.28;;
8564;SDS011;4320;51.498;6.556;2023-06-14T00:24:56;4.57;;;4.10;;
8564;SDS011;4320;51.498;6.556;2023-06-14T00:27:22;4.40;;;4.00;;
8564;SDS011;4320;51.498;6.556;2023-06-14T00:29:48;5.13;;;3.90;;
8564;SDS011;4320;51.498;6.556;2023-06-14T00:32:13;7.15;;;4.50;;
8564;SDS011;4320;51.498;6.556;2023-06-14T00:34:39;4.95;;;4.38;;
8564;SDS011;4320;51.498;6.556;2023-06-14T00:37:05;6.20;;;4.32;;
8564;SDS011;4320;51.498;6.556;2023-06-14T00:39:31;9.13;;;4.68;;
8564;SDS011;4320;51.498;6.556;2023-06-14T00:41:56;8.48;;;4.55;;
8564;SDS011;4320;51.498;6.556;2023-06-14T00:44:22;4.72;;;3.92;;
8564;SDS011;4320;51.498;6.556;2023-06-14T00:46:48;5.57;;;4.63;;
8564;SDS011;4320;51.498;6.556;2023-06-14T00:49:14;5.05;;;4.50;;
8564;SDS011;4320;51.498;6.556;2023-06-14T00:51:42;6.00;;;4.57;;
8564;SDS011;4320;51.498;6.556;2023-06-14T00:54:08;5.55;;;4.22;;
8564;SDS011;4320;51.498;6.556;2023-06-14T00:56:37;5.35;;;4.72;;
8564;SDS011;4320;51.498;6.556;2023-06-14T00:59:03;5.63;;;4.10;;
8564;SDS011;4320;51.498;6.556;2023-06-14T01:01:30;5.20;;;4.00;;
8564;SDS011;4320;51.498;6.556;2023-06-14T01:03:59;7.88;;;4.88;;
8564;SDS011;4320;51.498;6.556;2023-06-14T01:10:02;5.70;;;4.43;;
8564;SDS011;4320;51.498;6.556;2023-06-14T01:15:30;5.88;;;4.55;;
8564;SDS011;4320;51.498;6.556;2023-06-14T01:17:57;4.60;;;4.18;;
8564;SDS011;4320;51.498;6.556;2023-06-14T01:20:28;5.43;;;4.20;;
8564;SDS011;4320;51.498;6.556;2023-06-14T01:22:56;6.60;;;4.20;;
8564;SDS011;4320;51.498;6.556;2023-06-14T01:25:22;4.72;;;4.10;;
8564;SDS011;4320;51.498;6.556;2023-06-14T01:27:49;4.75;;;4.25;;
8564;SDS011;4320;51.498;6.556;2023-06-14T01:30:17;5.57;;;4.63;;
8564;SDS011;4320;51.498;6.556;2023-06-14T01:32:45;7.68;;;4.40;;
8564;SDS011;4320;51.498;6.556;2023-06-14T01:35:11;6.50;;;4.25;;
8564;SDS011;4320;51.498;6.556;2023-06-14T01:37:37;7.03;;;4.90;;
8564;SDS011;4320;51.498;6.556;2023-06-14T01:40:04;5.35;;;4.13;;
8564;SDS011;4320;51.498;6.556;2023-06-14T01:42:33;5.93;;;4.10;;
8564;SDS011;4320;51.498;6.556;2023-06-14T01:45:02;9.23;;;4.40;;
8564;SDS011;4320;51.498;6.556;2023-06-14T01:47:29;5.63;;;4.60;;
8564;SDS011;4320;51.498;6.556;2023-06-14T01:49:56;6.32;;;3.70;;
8564;SDS011;4320;51.498;6.556;2023-06-14T01:52:21;4.82;;;4.18;;
8564;SDS011;4320;51.498;6.556;2023-06-14T01:54:49;4.80;;;4.15;;
8564;SDS011;4320;51.498;6.556;2023-06-14T01:57:15;5.95;;;4.10;;
8564;SDS011;4320;51.498;6.556;2023-06-14T01:59:41;5.82;;;4.18;;
8564;SDS011;4320;51.498;6.556;2023-06-14T02:02:06;4.82;;;4.35;;
8564;SDS011;4320;51.498;6.556;2023-06-14T02:04:32;4.38;;;3.85;;
8564;SDS011;4320;51.498;6.556;2023-06-14T02:06:58;3.97;;;3.50;;
8564;SDS011;4320;51.498;6.556;2023-06-14T02:09:24;6.68;;;4.05;;
8564;SDS011;4320;51.498;6.556;2023-06-14T02:11:50;5.88;;;3.72;;
8564;SDS011;4320;51.498;6.556;2023-06-14T02:14:15;5.20;;;3.92;;
8564;SDS011;4320;51.498;6.556;2023-06-14T02:16:42;4.32;;;3.70;;
8564;SDS011;4320;51.498;6.556;2023-06-14T02:19:14;4.72;;;4.22;;
8564;SDS011;4320;51.498;6.556;2023-06-14T02:21:40;4.97;;;3.97;;
8564;SDS011;4320;51.498;6.556;2023-06-14T02:24:06;5.15;;;4.40;;
8564;SDS011;4320;51.498;6.556;2023-06-14T02:26:32;5.50;;;3.65;;
8564;SDS011;4320;51.498;6.556;2023-06-14T02:28:57;11.60;;;4.25;;
8564;SDS011;4320;51.498;6.556;2023-06-14T02:31:23;6.18;;;4.15;;
8564;SDS011;4320;51.498;6.556;2023-06-14T02:33:49;9.20;;;4.20;;
8564;SDS011;4320;51.498;6.556;2023-06-14T02:36:15;4.60;;;3.92;;
8564;SDS011;4320;51.498;6.556;2023-06-14T02:38:40;9.07;;;4.22;;
8564;SDS011;4320;51.498;6.556;2023-06-14T02:41:06;8.05;;;4.05;;
8564;SDS011;4320;51.498;6.556;2023-06-14T02:43:31;9.05;;;4.13;;
8564;SDS011;4320;51.498;6.556;2023-06-14T02:45:57;4.88;;;3.90;;
8564;SDS011;4320;51.498;6.556;2023-06-14T02:48:23;6.80;;;3.67;;
8564;SDS011;4320;51.498;6.556;2023-06-14T02:50:48;9.27;;;4.30;;
8564;SDS011;4320;51.498;6.556;2023-06-14T02:53:15;8.40;;;3.78;;
8564;SDS011;4320;51.498;6.556;2023-06-14T02:55:40;6.97;;;4.00;;
8564;SDS011;4320;51.498;6.556;2023-06-14T02:58:06;4.43;;;3.30;;
8564;SDS011;4320;51.498;6.556;2023-06-14T03:00:32;5.10;;;3.70;;
8564;SDS011;4320;51.498;6.556;2023-06-14T03:02:58;5.57;;;3.97;;
8564;SDS011;4320;51.498;6.556;2023-06-14T03:05:26;5.88;;;3.28;;
8564;SDS011;4320;51.498;6.556;2023-06-14T03:07:53;6.00;;;3.88;;
8564;SDS011;4320;51.498;6.556;2023-06-14T03:10:19;6.38;;;3.80;;
8564;SDS011;4320;51.498;6.556;2023-06-14T03:12:45;6.13;;;3.85;;
8564;SDS011;4320;51.498;6.556;2023-06-14T03:15:12;4.75;;;3.65;;
8564;SDS011;4320;51.498;6.556;2023-06-14T03:17:42;4.05;;;3.65;;
8564;SDS011;4320;51.498;6.556;2023-06-14T03:20:10;7.55;;;3.40;;
8564;SDS011;4320;51.498;6.556;2023-06-14T03:22:36;4.28;;;3.30;;
8564;SDS011;4320;51.498;6.556;2023-06-14T03:25:02;5.53;;;3.67;;
8564;SDS011;4320;51.498;6.556;2023-06-14T03:27:29;8.32;;;4.10;;
8564;SDS011;4320;51.498;6.556;2023-06-14T03:29:54;5.28;;;3.50;;
8564;SDS011;4320;51.498;6.556;2023-06-14T03:32:20;5.97;;;3.90;;
8564;SDS011;4320;51.498;6.556;2023-06-14T03:34:46;4.13;;;3.10;;
8564;SDS011;4320;51.498;6.556;2023-06-14T03:37:12;6.65;;;3.78;;
8564;SDS011;4320;51.498;6.556;2023-06-14T03:39:37;4.82;;;3.42;;
8564;SDS011;4320;51.498;6.556;2023-06-14T03:42:03;9.93;;;3.90;;
8564;SDS011;4320;51.498;6.556;2023-06-14T03:44:29;3.92;;;3.50;;
8564;SDS011;4320;51.498;6.556;2023-06-14T03:46:55;8.63;;;3.35;;
8564;SDS011;4320;51.498;6.556;2023-06-14T03:49:20;7.05;;;3.50;;
8564;SDS011;4320;51.498;6.556;2023-06-14T03:51:46;5.00;;;3.60;;
8564;SDS011;4320;51.498;6.556;2023-06-14T03:54:15;5.35;;;3.63;;
8564;SDS011;4320;51.498;6.556;2023-06-14T03:56:41;4.05;;;3.63;;
8564;SDS011;4320;51.498;6.556;2023-06-14T03:59:07;5.10;;;3.45;;
8564;SDS011;4320;51.498;6.556;2023-06-14T04:01:32;7.38;;;4.22;;
8564;SDS011;4320;51.498;6.556;2023-06-14T04:03:58;7.57;;;3.70;;
8564;SDS011;4320;51.498;6.556;2023-06-14T04:06:24;8.95;;;3.50;;
8564;SDS011;4320;51.498;6.556;2023-06-14T04:08:56;3.88;;;3.47;;
8564;SDS011;4320;51.498;6.556;2023-06-14T04:11:22;7.57;;;3.60;;
8564;SDS011;4320;51.498;6.556;2023-06-14T04:13:47;10.02;;;3.75;;
8564;SDS011;4320;51.498;6.556;2023-06-14T04:16:13;6.90;;;3.50;;
8564;SDS011;4320;51.498;6.556;2023-06-14T04:18:39;5.65;;;3.53;;
8564;SDS011;4320;51.498;6.556;2023-06-14T04:21:04;4.47;;;3.47;;
8564;SDS011;4320;51.498;6.556;2023-06-14T04:23:31;5.07;;;3.92;;
8564;SDS011;4320;51.498;6.556;2023-06-14T04:25:57;6.72;;;3.70;;
8564;SDS011;4320;51.498;6.556;2023-06-14T04:28:27;4.60;;;3.65;;
8564;SDS011;4320;51.498;6.556;2023-06-14T04:30:53;6.40;;;3.67;;
8564;SDS011;4320;51.498;6.556;2023-06-14T04:33:19;4.65;;;3.42;;
8564;SDS011;4320;51.498;6.556;2023-06-14T04:35:45;3.90;;;3.00;;
8564;SDS011;4320;51.498;6.556;2023-06-14T04:38:12;4.35;;;3.33;;
8564;SDS011;4320;51.498;6.556;2023-06-14T04:40:38;3.20;;;2.90;;
8564;SDS011;4320;51.498;6.556;2023-06-14T04:43:11;7.00;;;3.53;;
8564;SDS011;4320;51.498;6.556;2023-06-14T04:45:42;5.90;;;3.72;;
8564;SDS011;4320;51.498;6.556;2023-06-14T04:48:11;4.68;;;3.53;;
8564;SDS011;4320;51.498;6.556;2023-06-14T04:50:37;6.90;;;3.50;;
8564;SDS011;4320;51.498;6.556;2023-06-14T04:53:02;5.30;;;3.40;;
8564;SDS011;4320;51.498;6.556;2023-06-14T04:55:28;4.28;;;3.35;;
8564;SDS011;4320;51.498;6.556;2023-06-14T04:57:53;6.13;;;3.00;;
8564;SDS011;4320;51.498;6.556;2023-06-14T05:00:22;8.25;;;3.50;;
8564;SDS011;4320;51.498;6.556;2023-06-14T05:02:48;4.65;;;3.20;;
8564;SDS011;4320;51.498;6.556;2023-06-14T05:05:16;8.13;;;3.47;;
8564;SDS011;4320;51.498;6.556;2023-06-14T05:07:42;4.20;;;3.25;;
8564;SDS011;4320;51.498;6.556;2023-06-14T05:10:08;5.97;;;3.50;;
8564;SDS011;4320;51.498;6.556;2023-06-14T05:12:34;4.55;;;3.45;;
8564;SDS011;4320;51.498;6.556;2023-06-14T05:15:00;7.30;;;3.45;;
8564;SDS011;4320;51.498;6.556;2023-06-14T05:17:26;3.20;;;2.85;;
8564;SDS011;4320;51.498;6.556;2023-06-14T05:19:53;5.60;;;3.65;;
8564;SDS011;4320;51.498;6.556;2023-06-14T05:22:20;6.72;;;3.38;;
8564;SDS011;4320;51.498;6.556;2023-06-14T05:24:46;5.38;;;3.17;;
8564;SDS011;4320;51.498;6.556;2023-06-14T05:27:13;5.10;;;3.47;;
8564;SDS011;4320;51.498;6.556;2023-06-14T05:29:38;4.53;;;3.17;;
8564;SDS011;4320;51.498;6.556;2023-06-14T05:32:05;11.13;;;3.40;;
8564;SDS011;4320;51.498;6.556;2023-06-14T05:34:31;5.57;;;3.30;;
8564;SDS011;4320;51.498;6.556;2023-06-14T05:36:56;5.40;;;3.30;;
8564;SDS011;4320;51.498;6.556;2023-06-14T05:39:22;9.98;;;2.95;;
8564;SDS011;4320;51.498;6.556;2023-06-14T05:41:49;7.75;;;2.97;;
8564;SDS011;4320;51.498;6.556;2023-06-14T05:44:14;9.27;;;3.40;;
8564;SDS011;4320;51.498;6.556;2023-06-14T05:46:40;6.35;;;3.25;;
8564;SDS011;4320;51.498;6.556;2023-06-14T05:49:06;6.45;;;3.05;;
8564;SDS011;4320;51.498;6.556;2023-06-14T05:51:32;6.10;;;2.95;;
8564;SDS011;4320;51.498;6.556;2023-06-14T05:53:57;5.35;;;3.20;;
8564;SDS011;4320;51.498;6.556;2023-06-14T05:56:23;5.30;;;3.30;;
8564;SDS011;4320;51.498;6.556;2023-06-14T05:58:48;6.63;;;3.13;;
8564;SDS011;4320;51.498;6.556;2023-06-14T06:01:14;5.95;;;2.90;;
8564;SDS011;4320;51.498;6.556;2023-06-14T06:03:40;8.90;;;3.30;;
8564;SDS011;4320;51.498;6.556;2023-06-14T06:06:10;10.70;;;3.42;;
8564;SDS011;4320;51.498;6.556;2023-06-14T06:08:36;8.20;;;3.30;;
8564;SDS011;4320;51.498;6.556;2023-06-14T06:11:02;5.40;;;3.40;;
8564;SDS011;4320;51.498;6.556;2023-06-14T06:13:27;6.03;;;3.10;;
8564;SDS011;4320;51.498;6.556;2023-06-14T06:15:53;6.95;;;3.42;;
8564;SDS011;4320;51.498;6.556;2023-06-14T06:18:19;7.80;;;3.60;;
8564;SDS011;4320;51.498;6.556;2023-06-14T06:20:44;5.97;;;3.10;;
8564;SDS011;4320;51.498;6.556;2023-06-14T06:23:12;4.75;;;3.15;;
8564;SDS011;4320;51.498;6.556;2023-06-14T06:25:37;4.40;;;3.30;;
8564;SDS011;4320;51.498;6.556;2023-06-14T06:28:03;7.85;;;3.20;;
8564;SDS011;4320;51.498;6.556;2023-06-14T06:30:29;3.67;;;3.03;;
8564;SDS011;4320;51.498;6.556;2023-06-14T06:32:54;6.43;;;3.05;;
8564;SDS011;4320;51.498;6.556;2023-06-14T06:35:23;8.88;;;3.22;;
8564;SDS011;4320;51.498;6.556;2023-06-14T06:37:49;4.53;;;3.13;;
8564;SDS011;4320;51.498;6.556;2023-06-14T06:40:15;3.88;;;3.00;;
8564;SDS011;4320;51.498;6.556;2023-06-14T06:42:40;7.53;;;2.90;;
8564;SDS011;4320;51.498;6.556;2023-06-14T06:45:06;7.18;;;3.10;;
8564;SDS011;4320;51.498;6.556;2023-06-14T06:47:32;9.00;;;2.80;;
8564;SDS011;4320;51.498;6.556;2023-06-14T06:49:58;8.07;;;3.20;;
8564;SDS011;4320;51.498;6.556;2023-06-14T06:52:23;5.32;;;2.80;;
8564;SDS011;4320;51.498;6.556;2023-06-14T06:54:49;3.90;;;2.95;;
8564;SDS011;4320;51.498;6.556;2023-06-14T06:57:19;4.57;;;2.60;;
8564;SDS011;4320;51.498;6.556;2023-06-14T06:59:45;8.18;;;2.75;;
8564;SDS011;4320;51.498;6.556;2023-06-14T07:02:11;6.82;;;3.13;;
8564;SDS011;4320;51.498;6.556;2023-06-14T07:04:37;4.00;;;2.75;;
8564;SDS011;4320;51.498;6.556;2023-06-14T07:07:02;5.65;;;2.38;;
8564;SDS011;4320;51.498;6.556;2023-06-14T07:09:28;6.88;;;2.30;;
8564;SDS011;4320;51.498;6.556;2023-06-14T07:11:54;6.10;;;2.40;;
8564;SDS011;4320;51.498;6.556;2023-06-14T07:14:19;6.15;;;2.42;;
8564;SDS011;4320;51.498;6.556;2023-06-14T07:16:47;6.53;;;2.40;;
8564;SDS011;4320;51.498;6.556;2023-06-14T07:19:14;4.00;;;2.20;;
8564;SDS011;4320;51.498;6.556;2023-06-14T07:21:39;2.88;;;2.03;;
8564;SDS011;4320;51.498;6.556;2023-06-14T07:24:05;6.80;;;2.10;;
8564;SDS011;4320;51.498;6.556;2023-06-14T07:26:32;5.25;;;1.80;;
8564;SDS011;4320;51.498;6.556;2023-06-14T07:28:58;3.35;;;1.77;;
8564;SDS011;4320;51.498;6.556;2023-06-14T07:31:24;3.05;;;1.65;;
8564;SDS011;4320;51.498;6.556;2023-06-14T07:33:50;2.35;;;1.90;;
8564;SDS011;4320;51.498;6.556;2023-06-14T07:36:15;2.70;;;1.98;;
8564;SDS011;4320;51.498;6.556;2023-06-14T07:38:42;8.02;;;2.35;;
8564;SDS011;4320;51.498;6.556;2023-06-14T07:41:08;4.05;;;2.03;;
8564;SDS011;4320;51.498;6.556;2023-06-14T07:43:34;3.03;;;2.22;;
8564;SDS011;4320;51.498;6.556;2023-06-14T07:46:00;3.70;;;1.92;;
8564;SDS011;4320;51.498;6.556;2023-06-14T07:48:25;2.33;;;1.85;;
8564;SDS011;4320;51.498;6.556;2023-06-14T07:50:51;4.20;;;1.98;;
8564;SDS011;4320;51.498;6.556;2023-06-14T07:53:17;3.50;;;1.95;;
8564;SDS011;4320;51.498;6.556;2023-06-14T07:55:42;3.53;;;2.13;;
8564;SDS011;4320;51.498;6.556;2023-06-14T07:58:08;4.57;;;2.10;;
8564;SDS011;4320;51.498;6.556;2023-06-14T08:00:34;4.88;;;2.15;;
8564;SDS011;4320;51.498;6.556;2023-06-14T08:02:59;1.83;;;1.73;;
8564;SDS011;4320;51.498;6.556;2023-06-14T08:05:26;7.03;;;2.28;;
8564;SDS011;4320;51.498;6.556;2023-06-14T08:07:53;3.65;;;2.00;;
8564;SDS011;4320;51.498;6.556;2023-06-14T08:10:19;2.75;;;1.80;;
8564;SDS011;4320;51.498;6.556;2023-06-14T08:12:45;4.65;;;2.30;;
8564;SDS011;4320;51.498;6.556;2023-06-14T08:15:10;8.70;;;2.20;;
8564;SDS011;4320;51.498;6.556;2023-06-14T08:17:36;5.20;;;2.30;;
8564;SDS011;4320;51.498;6.556;2023-06-14T08:20:02;3.67;;;2.22;;
8564;SDS011;4320;51.498;6.556;2023-06-14T08:22:31;3.40;;;1.98;;
8564;SDS011;4320;51.498;6.556;2023-06-14T08:24:59;3.33;;;2.13;;
8564;SDS011;4320;51.498;6.556;2023-06-14T08:27:26;3.38;;;1.90;;
8564;SDS011;4320;51.498;6.556;2023-06-14T08:29:52;3.10;;;2.40;;
8564;SDS011;4320;51.498;6.556;2023-06-14T08:32:17;3.58;;;2.08;;
8564;SDS011;4320;51.498;6.556;2023-06-14T08:34:43;2.30;;;2.08;;
8564;SDS011;4320;51.498;6.556;2023-06-14T08:37:08;5.10;;;2.10;;
8564;SDS011;4320;51.498;6.556;2023-06-14T08:39:34;3.53;;;2.25;;
8564;SDS011;4320;51.498;6.556;2023-06-14T08:42:01;6.05;;;2.65;;
8564;SDS011;4320;51.498;6.556;2023-06-14T08:44:27;5.68;;;2.20;;
8564;SDS011;4320;51.498;6.556;2023-06-14T08:46:54;19.95;;;2.40;;
8564;SDS011;4320;51.498;6.556;2023-06-14T08:49:22;4.50;;;2.22;;
8564;SDS011;4320;51.498;6.556;2023-06-14T08:51:50;8.98;;;2.72;;
8564;SDS011;4320;51.498;6.556;2023-06-14T08:54:23;11.95;;;1.90;;
8564;SDS011;4320;51.498;6.556;2023-06-14T08:56:52;3.20;;;2.10;;
8564;SDS011;4320;51.498;6.556;2023-06-14T08:59:22;2.45;;;2.08;;
8564;SDS011;4320;51.498;6.556;2023-06-14T09:01:51;8.23;;;2.38;;
8564;SDS011;4320;51.498;6.556;2023-06-14T09:04:19;2.17;;;1.90;;
8564;SDS011;4320;51.498;6.556;2023-06-14T09:06:49;5.97;;;2.25;;
8564;SDS011;4320;51.498;6.556;2023-06-14T09:09:20;3.75;;;2.00;;
8564;SDS011;4320;51.498;6.556;2023-06-14T09:11:46;3.63;;;2.58;;
8564;SDS011;4320;51.498;6.556;2023-06-14T09:14:12;3.42;;;2.00;;
8564;SDS011;4320;51.498;6.556;2023-06-14T09:16:38;5.18;;;1.95;;
8564;SDS011;4320;51.498;6.556;2023-06-14T09:19:04;3.45;;;2.05;;
8564;SDS011;4320;51.498;6.556;2023-06-14T09:21:31;4.70;;;1.83;;
8564;SDS011;4320;51.498;6.556;2023-06-14T09:24:01;4.95;;;1.98;;
8564;SDS011;4320;51.498;6.556;2023-06-14T09:26:27;2.33;;;1.80;;
8564;SDS011;4320;51.498;6.556;2023-06-14T09:28:53;6.43;;;1.95;;
8564;SDS011;4320;51.498;6.556;2023-06-14T09:31:20;4.22;;;2.10;;
8564;SDS011;4320;51.498;6.556;2023-06-14T09:33:47;4.40;;;1.95;;
8564;SDS011;4320;51.498;6.556;2023-06-14T09:36:25;7.32;;;2.22;;
8564;SDS011;4320;51.498;6.556;2023-06-14T09:38:54;2.30;;;1.88;;
8564;SDS011;4320;51.498;6.556;2023-06-14T09:44:16;8.27;;;2.10;;
8564;SDS011;4320;51.498;6.556;2023-06-14T09:46:43;7.57;;;2.22;;
8564;SDS011;4320;51.498;6.556;2023-06-14T09:49:09;6.30;;;1.60;;
8564;SDS011;4320;51.498;6.556;2023-06-14T09:51:34;2.80;;;1.80;;
8564;SDS011;4320;51.498;6.556;2023-06-14T09:54:07;11.98;;;2.30;;
8564;SDS011;4320;51.498;6.556;2023-06-14T09:56:37;7.30;;;2.30;;
8564;SDS011;4320;51.498;6.556;2023-06-14T09:59:05;4.30;;;2.08;;
8564;SDS011;4320;51.498;6.556;2023-06-14T10:01:34;3.83;;;1.88;;
8564;SDS011;4320;51.498;6.556;2023-06-14T10:04:06;4.07;;;2.17;;
8564;SDS011;4320;51.498;6.556;2023-06-14T10:06:38;2.22;;;1.80;;
8564;SDS011;4320;51.498;6.556;2023-06-14T10:09:09;5.00;;;1.60;;
8564;SDS011;4320;51.498;6.556;2023-06-14T10:11:36;4.18;;;1.98;;
8564;SDS011;4320;51.498;6.556;2023-06-14T10:14:03;2.53;;;1.98;;
8564;SDS011;4320;51.498;6.556;2023-06-14T10:19:11;3.65;;;1.88;;
8564;SDS011;4320;51.498;6.556;2023-06-14T10:24:32;2.75;;;1.65;;
8564;SDS011;4320;51.498;6.556;2023-06-14T10:27:04;2.20;;;1.67;;
8564;SDS011;4320;51.498;6.556;2023-06-14T10:29:35;3.33;;;1.90;;
8564;SDS011;4320;51.498;6.556;2023-06-14T10:32:26;1.88;;;1.60;;
8564;SDS011;4320;51.498;6.556;2023-06-14T10:35:27;4.03;;;1.50;;
8564;SDS011;4320;51.498;6.556;2023-06-14T10:37:46;3.40;;;1.80;;
8564;SDS011;4320;51.498;6.556;2023-06-14T10:40:18;3.65;;;1.45;;
8564;SDS011;4320;51.498;6.556;2023-06-14T10:42:55;4.22;;;1.50;;
8564;SDS011;4320;51.498;6.556;2023-06-14T10:45:21;2.55;;;1.50;;
8564;SDS011;4320;51.498;6.556;2023-06-14T10:47:47;4.93;;;1.58;;
8564;SDS011;4320;51.498;6.556;2023-06-14T10:50:17;2.67;;;1.35;;
8564;SDS011;4320;51.498;6.556;2023-06-14T10:52:52;6.93;;;1.95;;
8564;SDS011;4320;51.498;6.556;2023-06-14T10:55:17;3.75;;;1.50;;
8564;SDS011;4320;51.498;6.556;2023-06-14T11:00:16;2.72;;;1.58;;
8564;SDS011;4320;51.498;6.556;2023-06-14T11:05:25;1.73;;;1.30;;
8564;SDS011;4320;51.498;6.556;2023-06-14T11:10:36;2.45;;;1.20;;
8564;SDS011;4320;51.498;6.556;2023-06-14T11:13:06;2.92;;;1.30;;
8564;SDS011;4320;51.498;6.556;2023-06-14T11:15:34;1.52;;;1.20;;
8564;SDS011;4320;51.498;6.556;2023-06-14T11:18:01;2.40;;;1.23;;
8564;SDS011;4320;51.498;6.556;2023-06-14T11:20:36;1.02;;;1.02;;
8564;SDS011;4320;51.498;6.556;2023-06-14T11:23:02;2.05;;;1.58;;
8564;SDS011;4320;51.498;6.556;2023-06-14T11:25:29;1.58;;;1.40;;
8564;SDS011;4320;51.498;6.556;2023-06-14T11:27:55;4.60;;;1.48;;
8564;SDS011;4320;51.498;6.556;2023-06-14T11:30:21;1.30;;;1.20;;
8564;SDS011;4320;51.498;6.556;2023-06-14T11:32:51;2.95;;;1.52;;
8564;SDS011;4320;51.498;6.556;2023-06-14T11:35:18;3.08;;;1.30;;
8564;SDS011;4320;51.498;6.556;2023-06-14T11:37:48;2.65;;;1.38;;
8564;SDS011;4320;51.498;6.556;2023-06-14T11:40:14;2.63;;;1.23;;
8564;SDS011;4320;51.498;6.556;2023-06-14T11:42:40;4.97;;;1.33;;
8564;SDS011;4320;51.498;6.556;2023-06-14T11:45:10;2.72;;;1.30;;
8564;SDS011;4320;51.498;6.556;2023-06-14T11:47:37;3.65;;;1.15;;
8564;SDS011;4320;51.498;6.556;2023-06-14T11:50:04;2.25;;;1.30;;
8564;SDS011;4320;51.498;6.556;2023-06-14T11:52:32;1.90;;;1.30;;
8564;SDS011;4320;51.498;6.556;2023-06-14T11:54:58;2.35;;;1.40;;
8564;SDS011;4320;51.498;6.556;2023-06-14T11:57:24;1.60;;;1.50;;
8564;SDS011;4320;51.498;6.556;2023-06-14T11:59:50;2.58;;;1.40;;
8564;SDS011;4320;51.498;6.556;2023-06-14T12:02:17;2.13;;;1.73;;
8564;SDS011;4320;51.498;6.556;2023-06-14T12:04:46;1.40;;;1.30;;
8564;SDS011;4320;51.498;6.556;2023-06-14T12:07:16;2.92;;;1.30;;
8564;SDS011;4320;51.498;6.556;2023-06-14T12:12:23;1.42;;;1.30;;
8564;SDS011;4320;51.498;6.556;2023-06-14T12:14:52;2.35;;;1.38;;
8564;SDS011;4320;51.498;6.556;2023-06-14T12:17:18;3.55;;;1.40;;
8564;SDS011;4320;51.498;6.556;2023-06-14T12:19:45;3.13;;;1.98;;
8564;SDS011;4320;51.498;6.556;2023-06-14T12:22:11;2.85;;;1.30;;
8564;SDS011;4320;51.498;6.556;2023-06-14T12:24:38;3.38;;;1.67;;
8564;SDS011;4320;51.498;6.556;2023-06-14T12:27:04;6.05;;;1.73;;
8564;SDS011;4320;51.498;6.556;2023-06-14T12:29:31;3.97;;;1.60;;
8564;SDS011;4320;51.498;6.556;2023-06-14T12:31:57;1.77;;;1.40;;
8564;SDS011;4320;51.498;6.556;2023-06-14T12:34:23;8.77;;;1.80;;
8564;SDS011;4320;51.498;6.556;2023-06-14T12:36:53;2.13;;;1.70;;
8564;SDS011;4320;51.498;6.556;2023-06-14T12:39:19;3.70;;;1.75;;
8564;SDS011;4320;51.498;6.556;2023-06-14T12:41:46;3.78;;;1.85;;
8564;SDS011;4320;51.498;6.556;2023-06-14T12:44:12;3.25;;;1.42;;
8564;SDS011;4320;51.498;6.556;2023-06-14T12:46:38;3.80;;;1.58;;
8564;SDS011;4320;51.498;6.556;2023-06-14T12:49:05;3.58;;;1.70;;
8564;SDS011;4320;51.498;6.556;2023-06-14T12:51:32;4.78;;;1.60;;
8564;SDS011;4320;51.498;6.556;2023-06-14T12:53:58;4.55;;;2.03;;
8564;SDS011;4320;51.498;6.556;2023-06-14T12:56:24;1.77;;;1.50;;
8564;SDS011;4320;51.498;6.556;2023-06-14T12:58:49;2.45;;;1.50;;
8564;SDS011;4320;51.498;6.556;2023-06-14T13:01:15;1.90;;;1.70;;
8564;SDS011;4320;51.498;6.556;2023-06-14T13:03:41;3.00;;;1.67;;
8564;SDS011;4320;51.498;6.556;2023-06-14T13:06:06;3.05;;;1.52;;
8564;SDS011;4320;51.498;6.556;2023-06-14T13:08:32;3.15;;;1.73;;
8564;SDS011;4320;51.498;6.556;2023-06-14T13:10:57;1.83;;;1.67;;
8564;SDS011;4320;51.498;6.556;2023-06-14T13:13:23;2.83;;;1.80;;
8564;SDS011;4320;51.498;6.556;2023-06-14T13:15:49;6.63;;;1.73;;
8564;SDS011;4320;51.498;6.556;2023-06-14T13:18:15;6.45;;;2.08;;
8564;SDS011;4320;51.498;6.556;2023-06-14T13:20:41;1.92;;;1.77;;
8564;SDS011;4320;51.498;6.556;2023-06-14T13:23:07;2.42;;;1.63;;
8564;SDS011;4320;51.498;6.556;2023-06-14T13:25:35;3.28;;;1.50;;
8564;SDS011;4320;51.498;6.556;2023-06-14T13:28:01;2.35;;;1.58;;
8564;SDS011;4320;51.498;6.556;2023-06-14T13:30:27;4.07;;;1.73;;
8564;SDS011;4320;51.498;6.556;2023-06-14T13:32:53;5.95;;;1.88;;
8564;SDS011;4320;51.498;6.556;2023-06-14T13:35:19;3.88;;;1.67;;
8564;SDS011;4320;51.498;6.556;2023-06-14T13:37:45;2.13;;;1.92;;
8564;SDS011;4320;51.498;6.556;2023-06-14T13:40:11;3.72;;;2.15;;
8564;SDS011;4320;51.498;6.556;2023-06-14T13:42:37;4.65;;;2.20;;
8564;SDS011;4320;51.498;6.556;2023-06-14T13:45:03;2.15;;;1.80;;
8564;SDS011;4320;51.498;6.556;2023-06-14T13:47:30;4.00;;;2.15;;
8564;SDS011;4320;51.498;6.556;2023-06-14T13:49:56;2.85;;;1.80;;
8564;SDS011;4320;51.498;6.556;2023-06-14T13:52:23;5.13;;;1.95;;
8564;SDS011;4320;51.498;6.556;2023-06-14T13:54:49;3.65;;;1.98;;
8564;SDS011;4320;51.498;6.556;2023-06-14T13:57:14;7.80;;;2.10;;
8564;SDS011;4320;51.498;6.556;2023-06-14T13:59:41;2.67;;;2.00;;
8564;SDS011;4320;51.498;6.556;2023-06-14T14:02:09;6.50;;;1.75;;
8564;SDS011;4320;51.498;6.556;2023-06-14T14:04:35;5.72;;;1.90;;
8564;SDS011;4320;51.498;6.556;2023-06-14T14:07:01;2.78;;;2.28;;
8564;SDS011;4320;51.498;6.556;2023-06-14T14:09:27;4.55;;;2.10;;
8564;SDS011;4320;51.498;6.556;2023-06-14T14:11:53;5.55;;;2.10;;
8564;SDS011;4320;51.498;6.556;2023-06-14T14:14:18;4.20;;;2.20;;
8564;SDS011;4320;51.498;6.556;2023-06-14T14:16:44;5.93;;;2.13;;
8564;SDS011;4320;51.498;6.556;2023-06-14T14:19:09;2.33;;;1.80;;
8564;SDS011;4320;51.498;6.556;2023-06-14T14:21:35;12.35;;;2.60;;
8564;SDS011;4320;51.498;6.556;2023-06-14T14:24:01;4.78;;;1.65;;
8564;SDS011;4320;51.498;6.556;2023-06-14T14:26:26;3.90;;;2.00;;
8564;SDS011;4320;51.498;6.556;2023-06-14T14:28:52;3.17;;;1.90;;
8564;SDS011;4320;51.498;6.556;2023-06-14T14:31:18;2.22;;;1.90;;
8564;SDS011;4320;51.498;6.556;2023-06-14T14:33:44;2.30;;;2.10;;
8564;SDS011;4320;51.498;6.556;2023-06-14T14:36:09;2.78;;;1.80;;
8564;SDS011;4320;51.498;6.556;2023-06-14T14:38:35;1.73;;;1.63;;
8564;SDS011;4320;51.498;6.556;2023-06-14T14:41:01;4.22;;;2.47;;
8564;SDS011;4320;51.498;6.556;2023-06-14T14:43:27;2.40;;;2.20;;
8564;SDS011;4320;51.498;6.556;2023-06-14T14:45:56;2.58;;;2.35;;
8564;SDS011;4320;51.498;6.556;2023-06-14T14:48:21;5.72;;;2.10;;
8564;SDS011;4320;51.498;6.556;2023-06-14T14:50:47;3.47;;;2.50;;
8564;SDS011;4320;51.498;6.556;2023-06-14T14:53:13;3.33;;;1.95;;
8564;SDS011;4320;51.498;6.556;2023-06-14T14:55:41;4.35;;;2.20;;
8564;SDS011;4320;51.498;6.556;2023-06-14T14:58:07;4.38;;;2.13;;
8564;SDS011;4320;51.498;6.556;2023-06-14T15:00:34;3.33;;;2.22;;
8564;SDS011;4320;51.498;6.556;2023-06-14T15:03:00;3.17;;;1.90;;
8564;SDS011;4320;51.498;6.556;2023-06-14T15:05:25;4.30;;;2.33;;
8564;SDS011;4320;51.498;6.556;2023-06-14T15:07:51;3.53;;;2.10;;
8564;SDS011;4320;51.498;6.556;2023-06-14T15:10:16;5.82;;;2.33;;
8564;SDS011;4320;51.498;6.556;2023-06-14T15:12:42;1.90;;;1.80;;
8564;SDS011;4320;51.498;6.556;2023-06-14T15:15:08;3.78;;;1.90;;
8564;SDS011;4320;51.498;6.556;2023-06-14T15:17:34;5.50;;;1.92;;
8564;SDS011;4320;51.498;6.556;2023-06-14T15:20:00;4.72;;;2.25;;
8564;SDS011;4320;51.498;6.556;2023-06-14T15:22:26;3.13;;;2.00;;
8564;SDS011;4320;51.498;6.556;2023-06-14T15:24:51;4.00;;;2.10;;
8564;SDS011;4320;51.498;6.556;2023-06-14T15:27:17;2.85;;;2.55;;
8564;SDS011;4320;51.498;6.556;2023-06-14T15:29:43;2.92;;;1.92;;
8564;SDS011;4320;51.498;6.556;2023-06-14T15:32:09;5.10;;;3.10;;
8564;SDS011;4320;51.498;6.556;2023-06-14T15:34:36;6.38;;;2.20;;
8564;SDS011;4320;51.498;6.556;2023-06-14T15:37:04;7.75;;;5.35;;